Terminal Aerodrome Forecast
Issued by NWS Charleston, WV

Current Version | Previous Version | Graphics & Text | Print | Product List | Glossary On
Versions: 1 2 3 4 5 6 7 8 9 10 11 12 13 14 15 16 17 18 19 20 21 22 23 24 25 26 27
000
FTUS41 KRLX 261425 AAA
TAFPKB
TAF AMD
KPKB 261425Z 2614/2712 16008G16KT P6SM -SHRA BKN060
     FM261700 17007G16KT P6SM +SHRA OVC035
     FM262100 17008G16KT 6SM +SHRA VCTS OVC040CB
     FM270100 17005KT P6SM -SHRA BKN040=

USA.gov is the U.S. government's official web portal to all federal, state and local government web resources and services.